Time,TemperatureF,DewpointF,PressureIn,WindDirection,WindDirectionDegrees,WindSpeedMPH,WindSpeedGustMPH,Humidity,HourlyPrecipIn,Conditions,Clouds,dailyrainin,SolarRadiationWatts/m^2,SoftwareType,DateUTC
2013-01-20 01:00:00,1.0,-2.0,30.36,SE,129,4.0,6.0,86,-99.99,,,-99.99,1.330000,,2013-01-20 08:00:00,
2013-01-20 01:52:00,1.0,-2.0,30.36,SE,129,4.0,6.0,86,-99.99,,,-99.99,1.330000,,2013-01-20 08:52:00,
2013-01-20 02:00:00,3.0,0.0,30.36,SE,142,4.0,5.0,87,-99.99,,,-99.99,1.210000,,2013-01-20 09:00:00,
2013-01-20 02:52:00,3.0,0.0,30.36,SE,142,4.0,5.0,87,-99.99,,,-99.99,1.210000,,2013-01-20 09:52:00,
2013-01-20 03:00:00,4.0,1.0,30.37,ESE,111,2.0,6.0,86,-99.99,,,-99.99,1.310000,,2013-01-20 10:00:00,
2013-01-20 03:52:00,4.0,1.0,30.37,ESE,111,2.0,6.0,86,-99.99,,,-99.99,1.310000,,2013-01-20 10:52:00,
2013-01-20 04:00:00,-1.0,-5.0,30.36,North,0,0.0,6.0,82,-99.99,,,-99.99,1.070000,,2013-01-20 11:00:00,
2013-01-20 04:53:00,-1.0,-5.0,30.36,North,0,0.0,6.0,82,-99.99,,,-99.99,1.070000,,2013-01-20 11:53:00,
2013-01-20 05:00:00,-1.0,-5.0,30.36,North,0,0.0,0.0,84,-99.99,,,-99.99,0.850000,,2013-01-20 12:00:00,
2013-01-20 05:53:00,-1.0,-5.0,30.36,North,0,0.0,0.0,84,-99.99,,,-99.99,0.850000,,2013-01-20 12:53:00,
2013-01-20 06:00:00,-2.0,-7.0,30.36,SSE,153,1.0,0.0,80,-99.99,,,-99.99,0.730000,,2013-01-20 13:00:00,
2013-01-20 06:53:00,-2.0,-7.0,30.36,SSE,153,1.0,0.0,80,-99.99,,,-99.99,0.730000,,2013-01-20 13:53:00,
2013-01-20 07:00:00,-2.0,-6.0,30.37,SSE,151,0.0,5.0,82,-99.99,,,-99.99,0.670000,,2013-01-20 14:00:00,
2013-01-20 07:53:00,-2.0,-6.0,30.37,SSE,151,0.0,5.0,82,-99.99,,,-99.99,0.670000,,2013-01-20 14:53:00,
2013-01-20 09:00:00,-4.0,-8.0,30.36,North,0,0.0,0.0,81,-99.99,,,-99.99,2.900000,,2013-01-20 16:00:00,
2013-01-20 10:00:00,-3.0,-8.0,30.39,SSE,155,3.0,3.0,81,-99.99,,,-99.99,169.500000,,2013-01-20 17:00:00,
2013-01-20 10:53:00,-3.0,-8.0,30.39,SSE,155,3.0,3.0,81,-99.99,,,-99.99,169.500000,,2013-01-20 17:53:00,
2013-01-20 11:00:00,8.0,6.0,30.39,ENE,69,0.0,4.0,90,-99.99,,,-99.99,331.000000,,2013-01-20 18:00:00,
2013-01-20 11:53:00,8.0,6.0,30.39,ENE,69,0.0,4.0,90,-99.99,,,-99.99,331.000000,,2013-01-20 18:53:00,
2013-01-20 12:00:00,12.0,8.0,30.36,SSW,195,0.0,2.0,86,-99.99,,,-99.99,418.700012,,2013-01-20 19:00:00,
2013-01-20 12:53:00,12.0,8.0,30.36,SSW,195,0.0,2.0,86,-99.99,,,-99.99,418.700012,,2013-01-20 19:53:00,
2013-01-20 13:00:00,10.0,4.0,30.35,SSE,151,4.0,5.0,78,-99.99,,,-99.99,486.500000,,2013-01-20 20:00:00,
2013-01-20 13:53:00,10.0,4.0,30.35,SSE,151,4.0,5.0,78,-99.99,,,-99.99,486.500000,,2013-01-20 20:53:00,
2013-01-20 14:00:00,16.0,7.0,30.33,ENE,66,1.0,6.0,66,-99.99,,,-99.99,517.400024,,2013-01-20 21:00:00,
2013-01-20 14:53:00,16.0,7.0,30.33,ENE,66,1.0,6.0,66,-99.99,,,-99.99,517.400024,,2013-01-20 21:53:00,
2013-01-20 15:00:00,14.0,7.0,30.33,North,5,2.0,4.0,72,-99.99,,,-99.99,439.100006,,2013-01-20 22:00:00,
2013-01-20 15:53:00,14.0,7.0,30.33,North,5,2.0,4.0,72,-99.99,,,-99.99,439.100006,,2013-01-20 22:53:00,
2013-01-20 16:00:00,12.0,6.0,30.33,NNW,336,4.0,5.0,76,-99.99,,,-99.99,284.399994,,2013-01-20 23:00:00,
2013-01-20 16:53:00,12.0,6.0,30.33,NNW,336,4.0,5.0,76,-99.99,,,-99.99,284.399994,,2013-01-20 23:53:00,
2013-01-20 17:00:00,11.0,6.0,30.33,North,352,5.0,5.0,81,-99.99,,,-99.99,129.500000,,2013-01-21 00:00:00,
2013-01-20 17:53:00,11.0,6.0,30.33,North,352,5.0,5.0,81,-99.99,,,-99.99,129.500000,,2013-01-21 00:53:00,
2013-01-20 18:00:00,7.0,4.0,30.33,NNE,14,1.0,5.0,87,-99.99,,,-99.99,12.560000,,2013-01-21 01:00:00,
2013-01-20 18:53:00,7.0,4.0,30.33,NNE,14,1.0,5.0,87,-99.99,,,-99.99,12.560000,,2013-01-21 01:53:00,
2013-01-20 19:00:00,9.0,6.0,30.34,NNE,31,4.0,5.0,86,-99.99,,,-99.99,1.360000,,2013-01-21 02:00:00,
2013-01-20 19:53:00,9.0,6.0,30.34,NNE,31,4.0,5.0,86,-99.99,,,-99.99,1.360000,,2013-01-21 02:53:00,
2013-01-20 20:00:00,6.0,2.0,30.34,NNE,12,3.0,5.0,85,-99.99,,,-99.99,1.360000,,2013-01-21 03:00:00,
2013-01-20 20:53:00,6.0,2.0,30.34,NNE,12,3.0,5.0,85,-99.99,,,-99.99,1.360000,,2013-01-21 03:53:00,
2013-01-20 21:00:00,8.0,6.0,30.35,North,0,0.0,5.0,90,-99.99,,,-99.99,1.360000,,2013-01-21 04:00:00,
2013-01-20 21:53:00,8.0,6.0,30.35,North,0,0.0,5.0,90,-99.99,,,-99.99,1.360000,,2013-01-21 04:53:00,
2013-01-20 22:00:00,9.0,7.0,30.35,ENE,78,2.0,0.0,89,-99.99,,,-99.99,1.370000,,2013-01-21 05:00:00,
2013-01-20 22:53:00,9.0,7.0,30.35,ENE,78,2.0,0.0,89,-99.99,,,-99.99,1.370000,,2013-01-21 05:53:00,
2013-01-20 23:00:00,5.0,3.0,30.35,NE,38,4.0,5.0,88,-99.99,,,-99.99,1.370000,,2013-01-21 06:00:00,
2013-01-20 23:53:00,5.0,3.0,30.35,NE,38,4.0,5.0,88,-99.99,,,-99.99,1.370000,,2013-01-21 06:53:00,